METAR Data
IDs: Format: Raw Decoded Include TAF

Data at: 1143 UTC 16 Oct 2018

PAFE 161056Z AUTO 10007KT 10SM CLR 10/01 A3018 RMK AO2 SLP232 T01000011
PAFE 160956Z AUTO 10006KT 10SM CLR 10/01 A3021 RMK AO2 SLP242 T01000011
PAFE 160856Z AUTO 09004KT 10SM CLR 06/02 A3020 RMK AO2 SLP240 T00610022 401220050 56005
PAFE 160756Z AUTO 09005KT 10SM CLR 09/02 A3020 RMK AO2 SLP241 T00940017
PAFE 160656Z AUTO 00000KT 10SM CLR 10/02 A3020 RMK AO2 SLP240 T01000017
PAFE 160556Z AUTO 10004KT 10SM CLR 09/03 A3022 RMK AO2 SLP246 T00890028 10122 20050 56011
PAFE 160456Z AUTO 09004KT 10SM CLR 05/04 A3022 RMK AO2 SLP246 T00500039
PAFE 160356Z AUTO 05004KT 10SM CLR 07/06 A3023 RMK AO2 SLP250 T00670056
PAFE 160256Z AUTO 08006KT 10SM CLR 09/06 A3025 RMK AO2 SLP258 T00940061 56005
PAFE 160156Z AUTO 10004KT 10SM CLR 11/06 A3025 RMK AO2 SLP257 T01060061
PAFE 160056Z AUTO 11005KT 10SM CLR 11/06 A3025 RMK AO2 SLP258 T01110061
PAFE 152356Z AUTO 13008G16KT 10SM CLR 12/06 A3027 RMK AO2 SLP262 T01220056 10122 20100 58013
PAFE 152256Z AUTO 13010G17KT 10SM CLR 12/06 A3029 RMK AO2 SLP268 T01220056
PAFE 152156Z AUTO 14010G17KT 10SM BKN040 12/06 A3030 RMK AO2 SLP273 T01220061
PAFE 151956Z AUTO 13009KT 10SM OVC032 11/07 A3030 RMK AO2 SLP273 T01060067
PAFE 151923Z AUTO 14005KT 10SM OVC030 11/07 A3029 RMK AO2
PAFE 151856Z AUTO 13009G15KT 10SM OVC028 11/07 A3029 RMK AO2 SLP271 T01060067
PAFE 151756Z AUTO 11010G22KT 10SM OVC020 10/07 A3028 RMK AO2 SLP267 T01000072 10100 20094 51012
PAFE 151608Z AUTO 11010G18KT 10SM BKN020 OVC030 09/07 A3026 RMK AO2
PAFE 151556Z AUTO 11010G15KT 10SM SCT020 OVC030 09/08 A3026 RMK AO2 SLP260 T00940078
PAFE 151456Z AUTO 11011G15KT 10SM OVC020 09/08 A3025 RMK AO2 SLP256 T00940078 53005
PAFE 151356Z AUTO 11011G15KT 10SM OVC022 09/08 A3024 RMK AO2 SLP253 T00940078
PAFE 151156Z AUTO 11012G16KT 10SM OVC018 10/08 A3023 RMK AO2 SLP251 60000 T01000078 10100 20094 53007
PAFE 150956Z AUTO 11012G19KT 10SM OVC016 10/08 A3022 RMK AO2 SLP245 T01000083
PAFE 150918Z AUTO 12012G19KT 10SM OVC017 10/08 A3022 RMK AO2
PAFE 150856Z AUTO 11012G18KT 10SM BKN012 OVC019 10/08 A3021 RMK AO2 RAB0759E09 SLP244 P0000 60000 T01000083 401110089 56000
PAFE 150842Z AUTO 11010G20KT 10SM BKN012 OVC017 10/08 A3022 RMK AO2 RAB0759E09 P0000
PAFE 150823Z AUTO 12014G20KT 10SM SCT010 OVC017 09/08 A3021 RMK AO2 RAB0759E09 P0000
PAFE 150756Z AUTO 11014G22KT 8SM BKN010 OVC017 10/09 A3021 RMK AO2 CIG 007V012 SLP244 T01000089
PAFE 150733Z AUTO 12012G19KT 10SM BKN010 OVC021 10/09 A3022 RMK AO2
PAFE 150656Z AUTO 12012G20KT 10SM FEW008 BKN021 OVC043 10/09 A3021 RMK AO2 RAE50 SLP243 P0000 T01000089
PAFE 150629Z AUTO 12013G19KT 9SM -RA FEW008 BKN018 OVC034 10/09 A3021 RMK AO2 P0000
PAFE 150610Z AUTO 11013G21KT 10SM -RA FEW010 BKN016 OVC032 10/09 A3020 RMK AO2 P0000
PAFE 150556Z AUTO 11012G19KT 8SM -RA BKN010 OVC016 10/09 A3021 RMK AO2 SLP244 P0000 60000 T01000089 10106 20094 53006
PAFE 150456Z AUTO 11011KT 10SM -RA OVC010 10/09 A3019 RMK AO2 RAB31 SLP237 P0000 T01000089
PAFE 150344Z AUTO 12019G26KT 8SM -RA BKN008 BKN018 OVC034 09/09 A3017 RMK AO2 PK WND 12026/0344 RAB07 P0000
PAFE 150256Z AUTO 12013G20KT 10SM OVC010 10/09 A3020 RMK AO2 RAE08B26E36 SLP238 P0000 60000 T01000089 53002
PAFE 150156Z AUTO 11013G20KT 8SM -RA OVC010 10/09 A3018 RMK AO2 RAB44 SLP234 P0000 T01000089
PAFE 150056Z AUTO 12016G22KT 10SM OVC010 11/09 A3019 RMK AO2 SLP236 T01060089
PAFE 142356Z AUTO 11013G22KT 10SM OVC010 11/09 A3019 RMK AO2 PK WND 13027/2257 CIG 009V013 SLP236 60000 T01060089 10111 20094 56007